Terminal Aerodrome Forecast
Issued by NWS Cleveland, OH

Home | Current Version | Previous Version | Text Only | Print | Product List | Glossary Off
Versions: 1 2 3 4 5 6 7 8 9 10 11 12 13 14 15 16 17

000
FTUS41 KCLE 300754 AAA
TAFTOL
TAF AMD
KTOL 300754Z 3008/3106 VRB03KT 2SM BR VCSH BKN050 OVC100
      TEMPO 3011/3013 3/4SM BR
     FM301400 23008KT P6SM SCT050 BKN150
     FM310100 VRB03KT P6SM FEW150 SCT250=

USA.gov is the U.S. government's official web portal to all federal, state and local government web resources and services.